Time;durP1;ratioP1;P1;durP2;ratioP2;P2;SDS_P1;SDS_P2;PMS_P1;PMS_P2;Temp;Humidity;BMP_temperature;BMP_pressure;BME280_temperature;BME280_humidity;BME280_pressure;Samples;Min_cycle;Max_cycle;Signal;HPM_P1;HPM_P2
2021/10/07 00:01:20;;;;;;;6.53;1.50;;;12.00;99.90;;;;;;5095948;28;20028;-82
2021/10/07 00:03:46;;;;;;;3.47;1.20;;;12.00;99.90;;;;;;5095833;28;20028;-82
2021/10/07 00:06:11;;;;;;;2.38;1.17;;;12.00;99.90;;;;;;5096202;28;20036;-82
2021/10/07 00:08:37;;;;;;;4.00;1.17;;;12.00;99.90;;;;;;5095625;28;20028;-82
2021/10/07 00:11:03;;;;;;;1.70;1.13;;;12.00;99.90;;;;;;5095490;28;20453;-82
2021/10/07 00:13:29;;;;;;;2.88;1.13;;;12.00;99.90;;;;;;5094781;28;20146;-81
2021/10/07 00:15:54;;;;;;;4.22;1.27;;;12.00;99.90;;;;;;5096233;28;20059;-82
2021/10/07 00:18:20;;;;;;;4.00;1.75;;;12.00;99.90;;;;;;5095483;28;20043;-82
2021/10/07 00:20:46;;;;;;;2.47;1.30;;;12.00;99.90;;;;;;5095130;28;20026;-81
2021/10/07 00:23:14;;;;;;;2.65;1.27;;;12.00;99.90;;;;;;5095404;28;20057;-82
2021/10/07 00:25:40;;;;;;;1.88;1.05;;;12.00;99.90;;;;;;5095100;28;20024;-82
2021/10/07 00:28:09;;;;;;;1.40;0.93;;;11.90;99.90;;;;;;5095380;28;20072;-82
2021/10/07 00:30:37;;;;;;;5.88;1.30;;;12.00;99.90;;;;;;5094632;28;20028;-92
2021/10/07 00:40:56;;;;;;;1.92;0.77;;;11.80;99.90;;;;;;5095434;28;20039;-82
2021/10/07 00:43:22;;;;;;;3.55;1.10;;;11.80;99.90;;;;;;5095191;28;20069;-81
2021/10/07 00:45:53;;;;;;;5.55;1.25;;;11.70;99.90;;;;;;5094633;28;20385;-80
2021/10/07 00:48:19;;;;;;;3.22;0.95;;;11.70;99.90;;;;;;5094973;28;20027;-82
2021/10/07 00:50:45;;;;;;;3.22;1.00;;;11.70;99.90;;;;;;5094146;28;20522;-82
2021/10/07 00:53:12;;;;;;;4.15;1.13;;;11.60;99.90;;;;;;5094687;28;20032;-81
2021/10/07 00:55:38;;;;;;;3.13;1.23;;;11.60;99.90;;;;;;5093953;28;20028;-82
2021/10/07 00:58:03;;;;;;;2.83;1.10;;;11.60;99.90;;;;;;5095900;28;20094;-81
2021/10/07 01:00:29;;;;;;;2.95;1.23;;;11.60;99.90;;;;;;5095634;28;20028;-82
2021/10/07 01:02:54;;;;;;;5.45;1.10;;;11.60;99.90;;;;;;5094973;28;20036;-82
2021/10/07 01:05:22;;;;;;;5.13;0.93;;;11.60;99.90;;;;;;5094741;28;20024;-81
2021/10/07 01:07:48;;;;;;;3.90;1.10;;;11.60;99.90;;;;;;5094145;28;20031;-82
2021/10/07 01:10:13;;;;;;;2.72;1.00;;;11.50;99.90;;;;;;5095403;28;20059;-82
2021/10/07 01:12:39;;;;;;;2.33;1.02;;;11.50;99.90;;;;;;5093872;28;20086;-82
2021/10/07 01:15:06;;;;;;;4.15;1.17;;;11.50;99.90;;;;;;5094170;28;20035;-81
2021/10/07 01:17:31;;;;;;;5.82;1.73;;;11.50;99.90;;;;;;5094430;28;20028;-81
2021/10/07 01:20:01;;;;;;;2.90;1.20;;;11.50;99.90;;;;;;5094608;28;20353;-81
2021/10/07 01:22:28;;;;;;;3.53;1.45;;;11.40;99.90;;;;;;5095246;28;20024;-82
2021/10/07 01:24:55;;;;;;;8.15;1.75;;;11.50;99.90;;;;;;5093187;28;20031;-81
2021/10/07 01:27:26;;;;;;;3.40;1.17;;;11.50;99.90;;;;;;5094388;28;20028;-84
2021/10/07 01:29:54;;;;;;;3.35;1.00;;;11.50;99.90;;;;;;5093693;28;20114;-83
2021/10/07 01:32:20;;;;;;;4.95;1.25;;;11.50;99.90;;;;;;5093956;28;20085;-82
2021/10/07 01:34:45;;;;;;;4.57;1.17;;;11.50;99.90;;;;;;5094536;28;20036;-81
2021/10/07 01:37:11;;;;;;;4.15;1.20;;;11.50;99.90;;;;;;5093964;28;20031;-82
2021/10/07 01:39:37;;;;;;;4.15;1.10;;;11.50;99.90;;;;;;5094678;28;20028;-81
2021/10/07 01:42:02;;;;;;;5.88;1.30;;;11.60;99.90;;;;;;5093254;28;20028;-82
2021/10/07 01:44:28;;;;;;;5.75;1.42;;;11.60;99.90;;;;;;5093892;28;20024;-81
2021/10/07 01:46:54;;;;;;;3.83;1.25;;;11.60;99.90;;;;;;5093440;28;20229;-81
2021/10/07 01:49:20;;;;;;;4.40;1.60;;;11.60;99.90;;;;;;5093899;28;20024;-81
2021/10/07 01:51:46;;;;;;;4.13;1.50;;;11.60;99.90;;;;;;5093369;28;20088;-82
2021/10/07 01:54:11;;;;;;;3.67;1.45;;;11.60;99.90;;;;;;5093795;28;20532;-82
2021/10/07 01:56:37;;;;;;;4.43;1.80;;;11.60;99.90;;;;;;5093074;28;20051;-82
2021/10/07 01:59:05;;;;;;;4.40;1.40;;;11.60;99.90;;;;;;5093101;28;20098;-82
2021/10/07 02:01:31;;;;;;;7.57;1.58;;;11.60;99.90;;;;;;5093405;28;20449;-80
2021/10/07 02:03:56;;;;;;;5.18;1.40;;;11.60;99.90;;;;;;5094167;28;20044;-82
2021/10/07 02:06:22;;;;;;;5.30;1.60;;;11.60;99.90;;;;;;5093373;28;20055;-81
2021/10/07 02:08:48;;;;;;;4.63;1.40;;;11.60;99.90;;;;;;5093062;28;20141;-82
2021/10/07 02:11:13;;;;;;;2.20;1.40;;;11.60;99.90;;;;;;5093697;28;20024;-83
2021/10/07 02:13:39;;;;;;;4.38;1.75;;;11.60;99.90;;;;;;5094236;28;20473;-82
2021/10/07 02:16:05;;;;;;;4.75;1.30;;;11.60;99.90;;;;;;5092877;28;20024;-81
2021/10/07 02:18:31;;;;;;;4.88;1.67;;;11.60;99.90;;;;;;5094354;28;20021;-81
2021/10/07 02:20:57;;;;;;;2.53;1.38;;;11.70;99.90;;;;;;5092990;28;20028;-82
2021/10/07 02:23:23;;;;;;;3.05;1.50;;;11.70;99.90;;;;;;5093417;28;20035;-81
2021/10/07 02:25:49;;;;;;;3.35;1.70;;;11.70;99.90;;;;;;5092876;28;20105;-82
2021/10/07 02:28:14;;;;;;;4.20;1.45;;;11.70;99.90;;;;;;5093291;28;20046;-81
2021/10/07 02:30:41;;;;;;;5.00;1.55;;;11.70;99.90;;;;;;5093172;28;20111;-82
2021/10/07 02:33:07;;;;;;;4.03;1.60;;;11.80;99.90;;;;;;5093375;28;20530;-82
2021/10/07 02:35:34;;;;;;;5.38;1.67;;;11.80;99.90;;;;;;5096161;28;20028;-82
2021/10/07 02:38:01;;;;;;;2.35;1.45;;;11.80;99.90;;;;;;5096966;28;20085;-82
2021/10/07 02:40:27;;;;;;;5.60;1.63;;;11.80;99.90;;;;;;5097477;28;20024;-82
2021/10/07 02:42:54;;;;;;;3.78;1.65;;;11.70;99.90;;;;;;5096764;28;20024;-82
2021/10/07 02:45:20;;;;;;;4.30;1.60;;;11.70;99.90;;;;;;5098372;28;20028;-82
2021/10/07 02:47:46;;;;;;;3.50;1.20;;;11.80;99.90;;;;;;5096648;28;20025;-82
2021/10/07 02:50:14;;;;;;;6.38;1.65;;;11.80;99.90;;;;;;5098258;28;20563;-81
2021/10/07 02:52:39;;;;;;;8.52;1.70;;;11.90;99.90;;;;;;5096978;28;20493;-81
2021/10/07 02:55:05;;;;;;;3.85;1.50;;;11.80;99.90;;;;;;5097912;28;20027;-81
2021/10/07 02:57:31;;;;;;;3.72;1.90;;;11.80;99.90;;;;;;5096378;28;20075;-81
2021/10/07 02:59:57;;;;;;;4.15;1.85;;;11.80;99.90;;;;;;5096588;28;20035;-81
2021/10/07 03:02:22;;;;;;;5.20;2.15;;;11.80;99.90;;;;;;5096947;28;20032;-81
2021/10/07 03:04:52;;;;;;;6.78;2.33;;;11.70;99.90;;;;;;5095982;28;20031;-82
2021/10/07 03:07:21;;;;;;;6.75;2.15;;;11.70;99.90;;;;;;5096551;28;20051;-81
2021/10/07 03:09:46;;;;;;;4.72;2.22;;;11.80;99.90;;;;;;5096272;28;20024;-82
2021/10/07 03:12:12;;;;;;;3.72;2.30;;;11.80;99.90;;;;;;5096500;28;20491;-81
2021/10/07 03:14:40;;;;;;;6.70;2.80;;;11.70;99.90;;;;;;5096849;28;20111;-81
2021/10/07 03:17:06;;;;;;;7.05;2.22;;;11.70;99.90;;;;;;5096238;28;20485;-82
2021/10/07 03:19:32;;;;;;;6.90;3.10;;;11.80;99.90;;;;;;5097386;28;20024;-81
2021/10/07 03:21:58;;;;;;;5.20;2.63;;;11.70;99.90;;;;;;5097138;28;20107;-81
2021/10/07 03:24:24;;;;;;;5.03;3.13;;;11.70;99.90;;;;;;5096332;28;20089;-80
2021/10/07 03:26:49;;;;;;;7.10;3.13;;;11.70;99.90;;;;;;5095797;28;20024;-82
2021/10/07 03:29:15;;;;;;;5.90;2.85;;;11.70;99.90;;;;;;5096442;28;20118;-81
2021/10/07 03:31:40;;;;;;;6.95;2.97;;;11.70;99.90;;;;;;5096023;28;20047;-81
2021/10/07 03:34:06;;;;;;;5.72;2.70;;;11.70;99.90;;;;;;5095511;28;20139;-81
2021/10/07 03:36:32;;;;;;;5.15;2.80;;;11.70;99.90;;;;;;5096164;28;20119;-81
2021/10/07 03:38:57;;;;;;;8.43;2.58;;;11.70;99.90;;;;;;5095708;28;20024;-82
2021/10/07 03:41:23;;;;;;;5.45;2.97;;;11.70;99.90;;;;;;5096005;28;20039;-81
2021/10/07 03:43:49;;;;;;;6.30;2.60;;;11.70;99.90;;;;;;5095920;28;20028;-81
2021/10/07 03:46:16;;;;;;;4.70;2.70;;;11.70;99.90;;;;;;5095053;28;20100;-81
2021/10/07 03:48:42;;;;;;;6.72;2.70;;;11.70;99.90;;;;;;5095421;28;20024;-82
2021/10/07 03:51:08;;;;;;;7.40;3.25;;;11.70;99.90;;;;;;5095416;28;20024;-82
2021/10/07 03:53:33;;;;;;;4.78;2.85;;;11.70;99.90;;;;;;5095433;28;20473;-81
2021/10/07 03:55:59;;;;;;;7.28;3.13;;;11.70;99.90;;;;;;5094927;28;20024;-82
2021/10/07 03:58:25;;;;;;;8.45;3.40;;;11.70;99.90;;;;;;5095844;28;20111;-81
2021/10/07 04:00:50;;;;;;;8.05;2.85;;;11.70;99.90;;;;;;5095453;28;20025;-82
2021/10/07 04:03:16;;;;;;;6.68;2.78;;;11.70;99.90;;;;;;5095573;28;20469;-81
2021/10/07 04:05:42;;;;;;;5.50;2.60;;;11.70;99.90;;;;;;5096663;28;20080;-81
2021/10/07 04:08:07;;;;;;;7.95;2.88;;;11.80;99.90;;;;;;5095128;28;20096;-81
2021/10/07 04:10:33;;;;;;;5.07;2.60;;;11.80;99.90;;;;;;5096496;28;20381;-81
2021/10/07 04:12:59;;;;;;;6.03;2.65;;;11.80;99.90;;;;;;5094702;28;20028;-81
2021/10/07 04:15:25;;;;;;;5.07;2.63;;;11.80;99.90;;;;;;5096326;28;20095;-81
2021/10/07 04:17:50;;;;;;;4.88;3.10;;;11.80;99.90;;;;;;5095704;28;20024;-82
2021/10/07 04:20:16;;;;;;;9.13;2.78;;;11.80;99.90;;;;;;5095662;28;20020;-81
2021/10/07 04:22:42;;;;;;;7.05;3.13;;;11.80;99.90;;;;;;5095354;28;20024;-80
2021/10/07 04:25:08;;;;;;;7.47;2.67;;;11.90;99.90;;;;;;5094475;28;20028;-81
2021/10/07 04:27:34;;;;;;;6.60;2.60;;;11.80;99.90;;;;;;5095207;28;20024;-81
2021/10/07 04:30:01;;;;;;;6.15;3.03;;;11.80;99.90;;;;;;5095602;28;20062;-81
2021/10/07 04:32:26;;;;;;;11.32;3.10;;;11.80;99.90;;;;;;5094960;28;20388;-80
2021/10/07 04:34:52;;;;;;;6.55;2.88;;;11.80;99.90;;;;;;5094267;28;20051;-81
2021/10/07 04:37:18;;;;;;;5.18;2.95;;;11.80;99.90;;;;;;5094806;28;20024;-81
2021/10/07 04:39:43;;;;;;;7.13;3.22;;;11.80;99.90;;;;;;5094922;28;20031;-82
2021/10/07 04:42:09;;;;;;;6.97;3.10;;;11.80;99.90;;;;;;5094697;28;20119;-82
2021/10/07 04:44:34;;;;;;;6.72;3.13;;;11.90;99.90;;;;;;5094759;28;20468;-81
2021/10/07 04:47:00;;;;;;;9.48;3.30;;;11.90;99.90;;;;;;5094395;28;20032;-82
2021/10/07 04:49:26;;;;;;;6.15;2.92;;;11.80;99.90;;;;;;5095728;28;20063;-81
2021/10/07 04:51:51;;;;;;;6.28;3.40;;;11.90;99.90;;;;;;5093998;28;20543;-82
2021/10/07 04:54:17;;;;;;;7.53;3.78;;;11.90;99.90;;;;;;5094562;28;20115;-82
2021/10/07 04:56:42;;;;;;;7.00;3.33;;;11.90;99.90;;;;;;5094569;28;20082;-81
2021/10/07 04:59:08;;;;;;;5.50;3.10;;;11.90;99.90;;;;;;5093294;28;20028;-82
2021/10/07 05:01:34;;;;;;;4.40;3.35;;;11.80;99.90;;;;;;5095074;28;20020;-82
2021/10/07 05:04:00;;;;;;;9.95;3.30;;;11.90;99.90;;;;;;5094087;28;20032;-84
2021/10/07 05:06:26;;;;;;;7.13;3.28;;;11.80;99.90;;;;;;5095294;28;20016;-83
2021/10/07 05:08:51;;;;;;;10.68;3.70;;;11.90;99.90;;;;;;5093907;28;20488;-93
2021/10/07 05:11:17;;;;;;;7.00;3.80;;;11.90;99.90;;;;;;5094179;28;20059;-80
2021/10/07 05:13:42;;;;;;;9.10;3.50;;;11.90;99.90;;;;;;5094148;28;20438;-82
2021/10/07 05:16:08;;;;;;;7.38;3.70;;;11.90;99.90;;;;;;5093558;28;20028;-84
2021/10/07 05:18:34;;;;;;;6.65;3.42;;;11.90;99.90;;;;;;5094759;28;20020;-83
2021/10/07 05:21:00;;;;;;;8.05;3.15;;;11.90;99.90;;;;;;5093623;28;20024;-84
2021/10/07 05:23:26;;;;;;;5.50;3.40;;;11.90;99.90;;;;;;5095067;28;20043;-83
2021/10/07 05:25:52;;;;;;;9.52;4.72;;;11.90;99.90;;;;;;5093989;28;20027;-94
2021/10/07 05:28:17;;;;;;;11.65;6.32;;;11.90;99.90;;;;;;5094020;28;20024;-83
2021/10/07 05:30:43;;;;;;;10.75;6.32;;;11.90;99.90;;;;;;5085640;28;20056;-82
2021/10/07 05:33:09;;;;;;;11.65;4.05;;;11.90;99.90;;;;;;5072947;28;20135;-83
2021/10/07 05:35:34;;;;;;;10.70;4.18;;;11.90;99.90;;;;;;5073803;28;20059;-82
2021/10/07 05:38:00;;;;;;;10.13;4.35;;;11.90;99.90;;;;;;5075827;28;20036;-84
2021/10/07 05:40:26;;;;;;;9.10;3.78;;;11.90;99.90;;;;;;5073780;28;20032;-84
2021/10/07 05:42:51;;;;;;;7.03;3.53;;;11.90;99.90;;;;;;5073359;28;20032;-84
2021/10/07 05:45:17;;;;;;;10.32;3.80;;;12.00;99.90;;;;;;5084668;28;20028;-83
2021/10/07 05:47:43;;;;;;;7.18;4.28;;;12.00;99.90;;;;;;5093882;28;20028;-84
2021/10/07 05:50:10;;;;;;;9.20;3.72;;;12.00;99.90;;;;;;5094058;28;20031;-84
2021/10/07 05:52:36;;;;;;;11.15;4.18;;;12.00;99.90;;;;;;5093351;28;20039;-83
2021/10/07 05:55:03;;;;;;;9.45;4.35;;;12.00;99.90;;;;;;5091398;28;20024;-84
2021/10/07 05:57:29;;;;;;;7.90;4.35;;;12.10;99.90;;;;;;5092711;28;20491;-83
2021/10/07 05:59:54;;;;;;;10.05;4.13;;;12.10;99.90;;;;;;5093858;28;20020;-88
2021/10/07 06:02:20;;;;;;;9.00;4.40;;;12.10;99.90;;;;;;5093066;28;20119;-83
2021/10/07 06:04:46;;;;;;;7.13;3.47;;;12.10;99.90;;;;;;5094456;28;20358;-83
2021/10/07 06:07:12;;;;;;;6.32;4.00;;;12.10;99.90;;;;;;5092163;28;20052;-83
2021/10/07 06:09:38;;;;;;;9.05;4.18;;;12.10;99.90;;;;;;5093687;28;20036;-83
2021/10/07 06:12:04;;;;;;;7.47;3.97;;;12.10;99.90;;;;;;5088338;28;20115;-84
2021/10/07 06:14:30;;;;;;;9.70;4.07;;;12.10;99.90;;;;;;5096222;28;20039;-84
2021/10/07 06:16:56;;;;;;;6.97;3.90;;;12.00;99.90;;;;;;5098187;28;20024;-85
2021/10/07 06:19:24;;;;;;;8.35;4.47;;;12.10;99.90;;;;;;5118345;28;20076;-84
2021/10/07 06:21:51;;;;;;;9.10;3.97;;;12.10;99.90;;;;;;5097867;28;20020;-84
2021/10/07 06:24:18;;;;;;;8.68;4.07;;;12.10;99.90;;;;;;5099471;28;20109;-84
2021/10/07 06:26:44;;;;;;;9.55;4.20;;;12.10;99.90;;;;;;5093789;28;20174;-84
2021/10/07 06:29:10;;;;;;;9.27;4.05;;;12.20;99.90;;;;;;5098520;28;20095;-82
2021/10/07 06:31:36;;;;;;;6.18;4.07;;;12.20;99.90;;;;;;5092636;28;20106;-84
2021/10/07 06:34:03;;;;;;;12.13;4.07;;;12.20;99.90;;;;;;5092924;28;20036;-84
2021/10/07 06:36:28;;;;;;;10.13;4.30;;;12.20;99.90;;;;;;5093306;28;20028;-84
2021/10/07 06:38:55;;;;;;;7.60;4.38;;;12.20;99.90;;;;;;5098087;28;20519;-85
2021/10/07 06:41:22;;;;;;;8.27;4.00;;;12.20;99.90;;;;;;5100316;28;20019;-82
2021/10/07 06:43:48;;;;;;;7.65;4.00;;;12.30;99.90;;;;;;5092493;28;20067;-84
2021/10/07 06:46:14;;;;;;;10.90;3.88;;;12.30;99.90;;;;;;5091607;28;20502;-84
2021/10/07 06:48:40;;;;;;;6.47;3.38;;;12.40;99.90;;;;;;5094221;28;20028;-84
2021/10/07 06:51:09;;;;;;;10.65;5.75;;;12.40;99.90;;;;;;5098476;28;20036;-84
2021/10/07 06:53:36;;;;;;;5.97;4.32;;;12.40;99.90;;;;;;5092525;28;20036;-84
2021/10/07 06:56:04;;;;;;;6.18;3.42;;;12.40;99.90;;;;;;5092387;28;20028;-84
2021/10/07 06:58:30;;;;;;;7.72;3.90;;;12.40;99.90;;;;;;5091194;28;20461;-83
2021/10/07 07:00:55;;;;;;;6.85;3.65;;;12.40;99.90;;;;;;5092429;28;20032;-84
2021/10/07 07:03:21;;;;;;;7.13;3.58;;;12.40;99.90;;;;;;5092792;28;20099;-82
2021/10/07 07:05:46;;;;;;;6.53;3.65;;;12.50;99.90;;;;;;5092855;28;20499;-83
2021/10/07 07:08:12;;;;;;;4.22;3.10;;;12.50;99.90;;;;;;5091521;28;20133;-81
2021/10/07 07:10:38;;;;;;;6.53;3.25;;;12.50;99.90;;;;;;5092580;28;20042;-84
2021/10/07 07:13:05;;;;;;;6.65;3.30;;;12.50;99.90;;;;;;5089405;28;20032;-83
2021/10/07 07:15:32;;;;;;;7.90;3.35;;;12.50;99.90;;;;;;5102288;28;20088;-83
2021/10/07 07:17:57;;;;;;;5.57;3.42;;;12.50;99.90;;;;;;5097139;28;20032;-83
2021/10/07 07:20:24;;;;;;;8.85;3.42;;;12.50;99.90;;;;;;5093145;28;20037;-83
2021/10/07 07:22:49;;;;;;;5.03;3.30;;;12.60;99.90;;;;;;5097403;28;20097;-82
2021/10/07 07:25:16;;;;;;;6.70;3.22;;;12.70;99.90;;;;;;5100304;28;20024;-83
2021/10/07 07:27:43;;;;;;;5.38;3.03;;;12.70;99.90;;;;;;5097548;28;20067;-83
2021/10/07 07:30:09;;;;;;;7.72;3.30;;;12.70;99.90;;;;;;5098207;28;20058;-83
2021/10/07 07:32:35;;;;;;;6.13;3.10;;;12.60;99.90;;;;;;5096487;28;20111;-83
2021/10/07 07:35:01;;;;;;;8.05;3.42;;;12.70;99.90;;;;;;5097057;28;20062;-83
2021/10/07 07:37:26;;;;;;;7.68;3.38;;;12.70;99.90;;;;;;5096129;28;20514;-83
2021/10/07 07:39:52;;;;;;;7.63;3.30;;;12.60;99.90;;;;;;5097379;28;20489;-83
2021/10/07 07:42:19;;;;;;;6.00;2.85;;;12.60;99.90;;;;;;5096525;28;20162;-83
2021/10/07 07:44:46;;;;;;;6.40;2.85;;;12.60;99.90;;;;;;5090405;28;20032;-81
2021/10/07 07:47:12;;;;;;;5.00;3.03;;;12.70;99.90;;;;;;5094076;28;20016;-84
2021/10/07 07:49:39;;;;;;;5.22;2.92;;;12.70;99.90;;;;;;5095368;28;20024;-84
2021/10/07 07:52:06;;;;;;;7.68;3.08;;;12.70;99.90;;;;;;5095909;28;20054;-84
2021/10/07 07:54:31;;;;;;;6.43;3.00;;;12.60;99.90;;;;;;5095524;28;20028;-83
2021/10/07 07:56:57;;;;;;;9.45;3.58;;;12.70;99.90;;;;;;5095854;28;20361;-83
2021/10/07 07:59:23;;;;;;;8.90;3.40;;;12.70;99.90;;;;;;5094770;28;20039;-83
2021/10/07 08:01:49;;;;;;;8.65;3.13;;;12.70;99.90;;;;;;5096047;28;20021;-84
2021/10/07 08:04:14;;;;;;;6.72;3.28;;;12.80;99.90;;;;;;5104037;28;20073;-83
2021/10/07 08:06:40;;;;;;;6.53;2.92;;;12.80;99.90;;;;;;5105854;28;20028;-83
2021/10/07 08:09:08;;;;;;;6.70;3.47;;;12.90;99.90;;;;;;5098971;27;20049;-84
2021/10/07 08:11:39;;;;;;;7.10;3.70;;;13.00;99.80;;;;;;5095025;28;20024;-83
2021/10/07 08:14:06;;;;;;;6.78;3.63;;;13.00;99.70;;;;;;5090535;28;20376;-83
2021/10/07 08:16:32;;;;;;;8.23;3.97;;;13.00;99.40;;;;;;5094487;28;20020;-83
2021/10/07 08:18:58;;;;;;;5.45;4.20;;;13.00;99.30;;;;;;5094716;28;20461;-83
2021/10/07 08:21:24;;;;;;;7.65;4.30;;;13.00;99.20;;;;;;5094386;28;20027;-83
2021/10/07 08:23:50;;;;;;;6.60;4.05;;;13.10;99.20;;;;;;5095011;28;20040;-84
2021/10/07 08:26:16;;;;;;;5.80;3.70;;;13.00;99.20;;;;;;5094134;28;20024;-83
2021/10/07 08:28:42;;;;;;;6.45;3.65;;;13.10;99.20;;;;;;5094343;28;20047;-83
2021/10/07 08:31:08;;;;;;;7.32;3.85;;;13.10;99.20;;;;;;5095334;28;20048;-83
2021/10/07 08:33:34;;;;;;;5.53;4.15;;;13.10;99.10;;;;;;5093759;28;20460;-83
2021/10/07 08:35:59;;;;;;;7.00;4.07;;;13.10;99.30;;;;;;5095892;28;20028;-86
2021/10/07 08:38:26;;;;;;;7.70;4.07;;;13.10;99.10;;;;;;5095028;28;20020;-83
2021/10/07 08:40:53;;;;;;;6.40;3.45;;;13.10;99.10;;;;;;5095618;28;20066;-83
2021/10/07 08:43:20;;;;;;;10.32;4.10;;;13.10;99.10;;;;;;5094881;28;20028;-82
2021/10/07 08:45:45;;;;;;;8.18;3.58;;;13.10;99.10;;;;;;5095545;28;20035;-83
2021/10/07 08:48:11;;;;;;;7.60;3.65;;;13.10;99.00;;;;;;5095050;28;20028;-82
2021/10/07 08:50:37;;;;;;;8.77;3.88;;;13.20;99.10;;;;;;5093967;28;20405;-84
2021/10/07 08:53:06;;;;;;;6.15;3.55;;;13.20;98.90;;;;;;5094413;28;20028;-84
2021/10/07 08:55:32;;;;;;;5.57;3.20;;;13.20;98.80;;;;;;5094478;28;20032;-83
2021/10/07 08:57:57;;;;;;;6.28;3.38;;;13.40;98.80;;;;;;5089780;28;20047;-82
2021/10/07 09:00:23;;;;;;;8.00;3.13;;;13.40;98.70;;;;;;5094191;28;20024;-83
2021/10/07 09:02:48;;;;;;;6.10;4.18;;;13.40;98.40;;;;;;5098180;28;20032;-84
2021/10/07 09:05:22;;;;;;;7.03;4.03;;;13.50;98.40;;;;;;5094419;28;20032;-84
2021/10/07 09:07:54;;;;;;;8.38;3.70;;;13.50;98.30;;;;;;5097701;28;20024;-84
2021/10/07 09:10:20;;;;;;;5.47;3.60;;;13.60;98.30;;;;;;5093564;28;20017;-82
2021/10/07 09:13:09;;;;;;;5.82;3.78;;;13.70;98.20;;;;;;5093891;28;20032;-82
2021/10/07 09:15:39;;;;;;;6.63;3.53;;;13.70;97.80;;;;;;5097789;28;20215;-83
2021/10/07 09:18:08;;;;;;;6.75;3.20;;;13.70;97.90;;;;;;5100359;28;20031;-84
2021/10/07 09:20:39;;;;;;;6.25;3.30;;;13.80;98.00;;;;;;5115593;28;20027;-83
2021/10/07 09:23:07;;;;;;;5.93;2.73;;;13.80;97.80;;;;;;5114372;28;20031;-84
2021/10/07 09:25:56;;;;;;;4.68;2.83;;;13.80;97.90;;;;;;5148988;27;20264;-81
2021/10/07 09:28:24;;;;;;;4.53;3.08;;;13.90;98.10;;;;;;5108071;28;20020;-83
2021/10/07 09:30:58;;;;;;;4.75;3.30;;;14.00;98.00;;;;;;5094034;28;20080;-82
2021/10/07 09:33:40;;;;;;;8.38;3.33;;;14.10;97.80;;;;;;5093369;28;20039;-85
2021/10/07 09:36:14;;;;;;;;;;;14.10;97.60;;;;;;5100891;28;20063;-83
2021/10/07 09:38:40;;;;;;;4.80;2.95;;;14.20;97.40;;;;;;5093845;28;19904;-84
2021/10/07 09:41:15;;;;;;;6.32;3.08;;;14.20;97.40;;;;;;5104806;28;20024;-84
2021/10/07 09:43:46;;;;;;;4.20;2.80;;;14.30;97.40;;;;;;5113362;28;20028;-84
2021/10/07 09:46:12;;;;;;;3.90;2.33;;;14.30;97.10;;;;;;5130523;27;20035;-83
2021/10/07 09:48:41;;;;;;;4.55;2.30;;;14.30;96.90;;;;;;5093234;28;20028;-84
2021/10/07 09:51:14;;;;;;;4.32;2.08;;;14.40;96.90;;;;;;5092679;28;20043;-89
2021/10/07 09:53:44;;;;;;;5.88;1.88;;;14.50;97.10;;;;;;5093422;28;20032;-83
2021/10/07 09:56:24;;;;;;;5.38;1.88;;;14.50;96.90;;;;;;5093395;28;20054;-85
2021/10/07 09:58:50;;;;;;;4.80;2.22;;;14.50;96.90;;;;;;5093403;28;20096;-81
2021/10/07 10:01:16;;;;;;;2.65;1.73;;;14.50;97.00;;;;;;5095439;28;20031;-80
2021/10/07 10:03:42;;;;;;;3.90;2.25;;;14.50;96.60;;;;;;5092974;28;20035;-81
2021/10/07 10:06:08;;;;;;;3.08;1.92;;;14.50;96.70;;;;;;5093020;28;20085;-88
2021/10/07 10:08:34;;;;;;;2.97;2.20;;;14.40;96.50;;;;;;5093842;28;20028;-85
2021/10/07 10:11:00;;;;;;;4.60;1.92;;;14.40;96.50;;;;;;5101901;28;20490;-85
2021/10/07 10:13:26;;;;;;;3.95;2.30;;;14.40;96.60;;;;;;5106196;28;20070;-84
2021/10/07 10:15:52;;;;;;;4.25;2.35;;;14.50;96.60;;;;;;5095142;28;20027;-83
2021/10/07 10:18:18;;;;;;;4.72;2.05;;;14.60;96.60;;;;;;5091309;28;20020;-83
2021/10/07 10:20:51;;;;;;;4.90;2.53;;;14.60;96.40;;;;;;5092347;28;20016;-83
2021/10/07 10:23:21;;;;;;;5.35;1.92;;;14.70;96.00;;;;;;5093484;28;20024;-82
2021/10/07 10:25:56;;;;;;;2.95;2.10;;;14.70;95.70;;;;;;5093662;28;20027;-81
2021/10/07 10:29:01;;;;;;;3.45;1.85;;;14.70;95.50;;;;;;5093559;28;20031;-81
2021/10/07 10:31:31;;;;;;;3.08;2.10;;;14.80;95.20;;;;;;5092467;28;20032;-81
2021/10/07 10:34:10;;;;;;;2.85;2.33;;;14.80;95.50;;;;;;5095558;28;20142;-80
2021/10/07 10:36:46;;;;;;;5.22;2.67;;;14.80;95.60;;;;;;5092256;28;20059;-80
2021/10/07 10:39:14;;;;;;;3.55;2.00;;;14.90;95.60;;;;;;5091725;28;20032;-82
2021/10/07 10:42:15;;;;;;;6.15;2.10;;;15.00;95.60;;;;;;5091780;28;20024;-80
2021/10/07 10:44:46;;;;;;;5.32;2.17;;;15.00;95.30;;;;;;5082184;28;20050;-80
2021/10/07 10:47:11;;;;;;;5.10;2.10;;;15.00;95.20;;;;;;5092649;28;20020;-81
2021/10/07 10:49:48;;;;;;;5.32;2.13;;;15.10;95.20;;;;;;5093038;28;20500;-81
2021/10/07 10:52:27;;;;;;;3.92;2.35;;;15.00;95.20;;;;;;5089791;28;20032;-82
2021/10/07 10:55:12;;;;;;;4.18;2.40;;;15.10;95.40;;;;;;5091597;28;20020;-82
2021/10/07 10:57:50;;;;;;;2.97;1.83;;;15.00;95.30;;;;;;5096033;28;20411;-82
2021/10/07 11:00:26;;;;;;;3.92;2.30;;;14.90;95.90;;;;;;5131701;27;20070;-82
2021/10/07 11:02:54;;;;;;;6.47;2.40;;;14.80;96.00;;;;;;5076086;28;20123;-82
2021/10/07 11:05:27;;;;;;;4.35;2.50;;;14.90;96.00;;;;;;5075414;28;20033;-82
2021/10/07 11:08:11;;;;;;;5.15;2.40;;;14.90;95.80;;;;;;5083330;28;20476;-82
2021/10/07 11:10:44;;;;;;;4.03;2.58;;;14.90;95.30;;;;;;5096251;28;20093;-82
2021/10/07 11:13:20;;;;;;;3.65;2.80;;;14.90;95.60;;;;;;5095922;28;20032;-85
2021/10/07 11:15:52;;;;;;;6.90;2.92;;;14.90;95.70;;;;;;5081565;28;20035;-81
2021/10/07 11:18:18;;;;;;;5.25;3.03;;;14.90;95.50;;;;;;5075424;28;20024;-81
2021/10/07 11:20:44;;;;;;;5.72;2.92;;;14.90;95.40;;;;;;5077076;28;20025;-81
2021/10/07 11:23:17;;;;;;;4.18;3.10;;;14.90;94.80;;;;;;5079141;28;20495;-81
2021/10/07 11:25:51;;;;;;;3.90;2.90;;;15.00;94.80;;;;;;5096605;28;20028;-81
2021/10/07 11:28:29;;;;;;;3.53;2.90;;;15.20;94.50;;;;;;5096207;28;20028;-81
2021/10/07 11:31:13;;;;;;;4.57;2.75;;;15.30;94.10;;;;;;5096586;28;20024;-81
2021/10/07 11:33:44;;;;;;;5.95;2.97;;;15.30;93.70;;;;;;5091097;28;20036;-81
2021/10/07 11:36:14;;;;;;;4.10;2.80;;;15.30;93.30;;;;;;5075587;28;20420;-81
2021/10/07 11:38:43;;;;;;;3.85;2.63;;;15.40;93.50;;;;;;5076642;28;20060;-81
2021/10/07 11:41:10;;;;;;;3.75;2.95;;;15.40;93.40;;;;;;5095576;28;20067;-83
2021/10/07 11:43:37;;;;;;;5.20;2.60;;;15.40;93.20;;;;;;5096201;28;20165;-81
2021/10/07 11:46:23;;;;;;;4.85;2.83;;;15.50;93.50;;;;;;5093811;28;20043;-80
2021/10/07 11:48:51;;;;;;;4.00;2.75;;;15.50;93.20;;;;;;5083166;28;20032;-80
2021/10/07 11:51:22;;;;;;;5.50;2.72;;;15.60;93.40;;;;;;5095350;28;20165;-82
2021/10/07 11:53:54;;;;;;;4.15;2.05;;;15.60;92.90;;;;;;5094857;28;20024;-81
2021/10/07 11:56:26;;;;;;;5.32;2.40;;;15.70;92.70;;;;;;5097338;28;20127;-81
2021/10/07 11:58:58;;;;;;;2.33;2.03;;;15.80;93.10;;;;;;5093260;28;20025;-81
2021/10/07 12:01:28;;;;;;;4.07;2.00;;;15.70;92.40;;;;;;5091956;28;20024;-81
2021/10/07 12:03:56;;;;;;;3.97;1.88;;;15.70;91.90;;;;;;5099395;28;20028;-81
2021/10/07 12:06:22;;;;;;;3.92;1.52;;;15.70;91.90;;;;;;5099010;28;20039;-81
2021/10/07 12:08:48;;;;;;;2.53;1.58;;;15.70;92.40;;;;;;5110050;27;20025;-79
2021/10/07 12:11:20;;;;;;;4.57;1.70;;;15.70;91.40;;;;;;5077367;28;20071;-81
2021/10/07 12:13:48;;;;;;;1.88;1.50;;;15.90;91.10;;;;;;5090212;28;20528;-81
2021/10/07 12:16:21;;;;;;;3.15;1.77;;;16.30;90.50;;;;;;5090212;28;20115;-81
2021/10/07 12:19:10;;;;;;;2.67;1.45;;;16.40;90.00;;;;;;5080959;28;20021;-81
2021/10/07 12:21:41;;;;;;;2.45;1.55;;;16.60;88.90;;;;;;5094101;28;20043;-80
2021/10/07 12:24:11;;;;;;;1.95;1.50;;;16.80;87.70;;;;;;5082479;28;20033;-80
2021/10/07 12:26:50;;;;;;;1.85;1.67;;;17.00;85.60;;;;;;5076160;28;20020;-81
2021/10/07 12:29:48;;;;;;;1.98;1.38;;;17.20;84.40;;;;;;5114864;27;20049;-82
2021/10/07 12:32:14;;;;;;;3.40;2.15;;;17.30;83.60;;;;;;5054855;28;20439;-85
2021/10/07 12:34:46;;;;;;;1.95;1.33;;;17.60;83.10;;;;;;5082008;28;20047;-80
2021/10/07 12:37:14;;;;;;;2.15;1.52;;;17.80;83.00;;;;;;5089658;28;20028;-85
2021/10/07 12:39:48;;;;;;;3.65;1.80;;;18.10;82.70;;;;;;5090928;28;20028;-81
2021/10/07 12:42:15;;;;;;;2.67;1.55;;;18.40;80.90;;;;;;5093654;28;20058;-81
2021/10/07 12:44:44;;;;;;;2.03;1.38;;;18.80;78.80;;;;;;5094000;28;20020;-81
2021/10/07 12:47:15;;;;;;;1.88;1.35;;;19.40;76.50;;;;;;5095125;28;20028;-83
2021/10/07 12:49:49;;;;;;;1.90;1.50;;;19.90;72.90;;;;;;5086590;28;20461;-81
2021/10/07 12:52:22;;;;;;;1.60;1.50;;;20.20;70.50;;;;;;5093689;28;20024;-81
2021/10/07 12:54:59;;;;;;;1.30;1.15;;;20.20;70.30;;;;;;5094164;28;20024;-80
2021/10/07 12:57:37;;;;;;;1.98;1.20;;;20.40;68.10;;;;;;5092907;28;20044;-80